AIB346 OMDB-WMKK
Flight info
| Callsign | AIB346 |
|---|---|
| Flight time | N/A |
| Altitude | 37000 |
| Route | IVURO M677 LALDO B505 NADSO A777 VAXIM P307 PARAR N571 BIKEN/N0480F390 N571 GUNIP Y347 KAKAK KAKAK1G |
| Aircraft | A346/H-SDE2E3FGHIJ3J4J5M1RWXY/LB1D1 |
Departure
| Time | 2026-04-26 02:33 |
|---|---|
| Airport | Dubai International Airport (OMDB) |
Arrival
| Time | N/A |
|---|---|
| Airport | Kuala Lumpur International Airport (WMKK) |
| Time | Latitude | Longitude | Altitude | Speed | Heading |
|---|---|---|---|---|---|
| 2026-04-26 01:59 | 25.25583 | 55.34783 | 18 ft | 0 kts | 304° |
| 2026-04-26 02:15 | 25.25582 | 55.34785 | 20 ft | 0 kts | 304° |
| 2026-04-26 02:16 | 25.25569 | 55.34807 | 22 ft | 0 kts | 304° |
| 2026-04-26 02:16 | 25.25554 | 55.34831 | 21 ft | 0 kts | 307° |
| 2026-04-26 02:16 | 25.25539 | 55.34842 | 23 ft | 0 kts | 346° |
| 2026-04-26 02:16 | 25.25522 | 55.34841 | 23 ft | 0 kts | 19° |
| 2026-04-26 02:17 | 25.25521 | 55.34841 | 23 ft | 0 kts | 20° |
| 2026-04-26 02:23 | 25.25526 | 55.34843 | 18 ft | 1 kts | 23° |
| 2026-04-26 02:23 | 25.25540 | 55.34852 | 18 ft | 3 kts | 33° |
| 2026-04-26 02:23 | 25.25566 | 55.34872 | 20 ft | 5 kts | 37° |
| 2026-04-26 02:24 | 25.25602 | 55.34901 | 18 ft | 7 kts | 34° |
| 2026-04-26 02:24 | 25.25652 | 55.34936 | 18 ft | 10 kts | 32° |
| 2026-04-26 02:24 | 25.25718 | 55.34980 | 18 ft | 12 kts | 31° |
| 2026-04-26 02:24 | 25.25796 | 55.35032 | 18 ft | 14 kts | 31° |
| 2026-04-26 02:25 | 25.25885 | 55.35091 | 18 ft | 15 kts | 31° |
| 2026-04-26 02:25 | 25.25979 | 55.35154 | 18 ft | 16 kts | 31° |
| 2026-04-26 02:25 | 25.26077 | 55.35219 | 21 ft | 14 kts | 31° |
| 2026-04-26 02:25 | 25.26117 | 55.35283 | 18 ft | 11 kts | 95° |
| 2026-04-26 02:26 | 25.26078 | 55.35366 | 18 ft | 13 kts | 121° |
| 2026-04-26 02:26 | 25.26028 | 55.35459 | 19 ft | 15 kts | 121° |
| 2026-04-26 02:26 | 25.25972 | 55.35561 | 18 ft | 16 kts | 121° |
| 2026-04-26 02:26 | 25.25912 | 55.35671 | 20 ft | 17 kts | 121° |
| 2026-04-26 02:27 | 25.25844 | 55.35795 | 18 ft | 19 kts | 121° |
| 2026-04-26 02:27 | 25.25768 | 55.35934 | 18 ft | 21 kts | 121° |
| 2026-04-26 02:27 | 25.25687 | 55.36078 | 17 ft | 22 kts | 120° |
| 2026-04-26 02:27 | 25.25600 | 55.36230 | 17 ft | 24 kts | 122° |
| 2026-04-26 02:28 | 25.25510 | 55.36390 | 17 ft | 25 kts | 122° |
| 2026-04-26 02:28 | 25.25414 | 55.36561 | 18 ft | 26 kts | 122° |
| 2026-04-26 02:28 | 25.25315 | 55.36740 | 18 ft | 26 kts | 121° |
| 2026-04-26 02:28 | 25.25219 | 55.36917 | 18 ft | 27 kts | 121° |
| 2026-04-26 02:29 | 25.25121 | 55.37094 | 18 ft | 28 kts | 122° |
| 2026-04-26 02:29 | 25.25019 | 55.37277 | 22 ft | 28 kts | 120° |
| 2026-04-26 02:29 | 25.24915 | 55.37472 | 22 ft | 28 kts | 121° |
| 2026-04-26 02:29 | 25.24813 | 55.37659 | 19 ft | 29 kts | 121° |
| 2026-04-26 02:30 | 25.24711 | 55.37838 | 19 ft | 21 kts | 122° |
| 2026-04-26 02:30 | 25.24679 | 55.37952 | 21 ft | 6 kts | 56° |
| 2026-04-26 02:30 | 25.24689 | 55.37960 | 21 ft | 1 kts | 32° |
| 2026-04-26 02:30 | 25.24704 | 55.37970 | 20 ft | 4 kts | 32° |
| 2026-04-26 02:31 | 25.24737 | 55.37993 | 23 ft | 7 kts | 32° |
| 2026-04-26 02:31 | 25.24785 | 55.38019 | 20 ft | 8 kts | 5° |
| 2026-04-26 02:31 | 25.24829 | 55.37980 | 21 ft | 9 kts | 308° |
| 2026-04-26 02:31 | 25.24837 | 55.37966 | 19 ft | 1 kts | 302° |
| 2026-04-26 02:32 | 25.24882 | 55.37886 | 20 ft | 39 kts | 302° |
| 2026-04-26 02:32 | 25.25154 | 55.37398 | 18 ft | 104 kts | 302° |
| 2026-04-26 02:32 | 25.25630 | 55.36540 | 19 ft | 155 kts | 301° |
| 2026-04-26 02:32 | 25.26278 | 55.35405 | 144 ft | 183 kts | 301° |
| 2026-04-26 02:33 | 25.26977 | 55.34221 | 667 ft | 184 kts | 302° |
| 2026-04-26 02:33 | 25.27643 | 55.33019 | 1192 ft | 181 kts | 300° |
| 2026-04-26 02:33 | 25.28265 | 55.31819 | 1700 ft | 178 kts | 301° |
| 2026-04-26 02:33 | 25.28873 | 55.30669 | 2081 ft | 174 kts | 303° |
| 2026-04-26 02:34 | 25.29774 | 55.29714 | 2217 ft | 181 kts | 334° |
| 2026-04-26 02:34 | 25.31072 | 55.29465 | 2394 ft | 191 kts | 357° |
| 2026-04-26 02:34 | 25.32445 | 55.29498 | 2593 ft | 201 kts | 359° |
| 2026-04-26 02:34 | 25.33887 | 55.29549 | 2779 ft | 211 kts | 359° |
| 2026-04-26 02:35 | 25.35391 | 55.29596 | 2973 ft | 221 kts | 359° |
| 2026-04-26 02:35 | 25.36962 | 55.29638 | 3163 ft | 231 kts | 359° |
| 2026-04-26 02:35 | 25.38587 | 55.29692 | 3545 ft | 233 kts | 4° |
| 2026-04-26 02:35 | 25.40128 | 55.30280 | 3979 ft | 238 kts | 34° |
| 2026-04-26 02:36 | 25.41319 | 55.31635 | 4253 ft | 251 kts | 49° |
| 2026-04-26 02:36 | 25.42431 | 55.33199 | 4489 ft | 264 kts | 50° |
| 2026-04-26 02:36 | 25.43625 | 55.34882 | 4806 ft | 278 kts | 50° |
| 2026-04-26 02:36 | 25.44856 | 55.36594 | 5464 ft | 281 kts | 50° |
| 2026-04-26 02:37 | 25.46083 | 55.38285 | 6163 ft | 282 kts | 50° |
| 2026-04-26 02:37 | 25.47334 | 55.39999 | 6795 ft | 286 kts | 50° |
| 2026-04-26 02:37 | 25.48594 | 55.41731 | 7398 ft | 290 kts | 50° |
| 2026-04-26 02:37 | 25.49828 | 55.43484 | 8029 ft | 294 kts | 51° |
| 2026-04-26 02:38 | 25.51115 | 55.45341 | 8678 ft | 298 kts | 51° |
| 2026-04-26 02:38 | 25.52355 | 55.47211 | 9301 ft | 303 kts | 59° |
| 2026-04-26 02:38 | 25.52994 | 55.49454 | 9865 ft | 309 kts | 88° |
| 2026-04-26 02:38 | 25.52653 | 55.51870 | 10365 ft | 315 kts | 115° |
| 2026-04-26 02:39 | 25.51510 | 55.54056 | 10659 ft | 328 kts | 125° |
| 2026-04-26 02:39 | 25.50204 | 55.56218 | 10928 ft | 344 kts | 125° |
| 2026-04-26 02:39 | 25.48831 | 55.58512 | 11202 ft | 359 kts | 124° |
| 2026-04-26 02:39 | 25.47440 | 55.60896 | 11463 ft | 375 kts | 124° |
| 2026-04-26 02:40 | 25.45974 | 55.63449 | 11732 ft | 390 kts | 124° |
| 2026-04-26 02:40 | 25.44493 | 55.66047 | 12087 ft | 401 kts | 123° |
| 2026-04-26 02:40 | 25.43161 | 55.68801 | 12688 ft | 406 kts | 116° |
| 2026-04-26 02:40 | 25.42136 | 55.71742 | 13359 ft | 409 kts | 109° |
| 2026-04-26 02:41 | 25.41400 | 55.74817 | 13972 ft | 412 kts | 104° |
| 2026-04-26 02:41 | 25.40754 | 55.77927 | 14514 ft | 416 kts | 104° |
| 2026-04-26 02:41 | 25.40090 | 55.81154 | 15081 ft | 419 kts | 104° |
| 2026-04-26 02:41 | 25.39430 | 55.84322 | 15624 ft | 423 kts | 104° |
| 2026-04-26 02:42 | 25.38751 | 55.87535 | 16165 ft | 426 kts | 104° |
| 2026-04-26 02:42 | 25.38058 | 55.90783 | 16710 ft | 430 kts | 104° |
| 2026-04-26 02:42 | 25.37359 | 55.94052 | 17236 ft | 434 kts | 105° |
| 2026-04-26 02:42 | 25.36656 | 55.97330 | 17775 ft | 438 kts | 105° |
| 2026-04-26 02:43 | 25.35224 | 56.04010 | 18732 ft | 446 kts | 105° |
| 2026-04-26 02:43 | 25.34494 | 56.07404 | 19173 ft | 449 kts | 105° |
| 2026-04-26 02:43 | 25.33762 | 56.10803 | 19596 ft | 453 kts | 105° |
| 2026-04-26 02:44 | 25.33082 | 56.14292 | 20043 ft | 457 kts | 102° |
| 2026-04-26 02:44 | 25.32576 | 56.17839 | 20486 ft | 461 kts | 98° |
| 2026-04-26 02:44 | 25.32241 | 56.21379 | 20928 ft | 465 kts | 96° |
| 2026-04-26 02:44 | 25.31947 | 56.24989 | 21370 ft | 469 kts | 96° |
| 2026-04-26 02:45 | 25.31661 | 56.28592 | 21793 ft | 472 kts | 96° |
| 2026-04-26 02:45 | 25.31362 | 56.32302 | 22235 ft | 475 kts | 96° |
| 2026-04-26 02:45 | 25.31064 | 56.35907 | 22672 ft | 479 kts | 96° |
| 2026-04-26 02:45 | 25.30785 | 56.39595 | 23069 ft | 483 kts | 94° |
| 2026-04-26 02:46 | 25.30636 | 56.43318 | 23482 ft | 486 kts | 92° |
| 2026-04-26 02:46 | 25.30527 | 56.47074 | 23834 ft | 489 kts | 92° |
| 2026-04-26 02:46 | 25.30424 | 56.50856 | 24186 ft | 492 kts | 92° |
| 2026-04-26 02:46 | 25.30313 | 56.54656 | 24558 ft | 494 kts | 93° |
| 2026-04-26 02:47 | 25.29953 | 56.58442 | 24924 ft | 497 kts | 100° |
| 2026-04-26 02:47 | 25.29188 | 56.62185 | 25294 ft | 498 kts | 107° |
| 2026-04-26 02:47 | 25.28037 | 56.65798 | 25670 ft | 499 kts | 113° |
| 2026-04-26 02:47 | 25.26706 | 56.69358 | 26048 ft | 501 kts | 115° |
| 2026-04-26 02:48 | 25.25335 | 56.72911 | 26415 ft | 504 kts | 115° |
| 2026-04-26 02:48 | 25.23953 | 56.76483 | 26776 ft | 507 kts | 115° |
| 2026-04-26 02:48 | 25.22565 | 56.80086 | 27131 ft | 510 kts | 115° |
| 2026-04-26 02:48 | 25.21179 | 56.83703 | 27490 ft | 513 kts | 115° |
| 2026-04-26 02:49 | 25.19787 | 56.87345 | 27855 ft | 515 kts | 115° |
| 2026-04-26 02:49 | 25.18392 | 56.91004 | 28231 ft | 518 kts | 115° |
| 2026-04-26 02:49 | 25.16993 | 56.94674 | 28722 ft | 517 kts | 115° |
| 2026-04-26 02:49 | 25.15602 | 56.98327 | 29308 ft | 515 kts | 115° |
| 2026-04-26 02:50 | 25.14214 | 57.01966 | 29898 ft | 513 kts | 115° |
| 2026-04-26 02:50 | 25.12819 | 57.05619 | 30347 ft | 512 kts | 115° |
| 2026-04-26 02:50 | 25.11448 | 57.09203 | 30785 ft | 511 kts | 115° |
| 2026-04-26 02:50 | 25.10064 | 57.12820 | 31199 ft | 511 kts | 115° |
| 2026-04-26 02:51 | 25.08677 | 57.16441 | 31629 ft | 511 kts | 114° |
| 2026-04-26 02:51 | 25.07293 | 57.20055 | 32048 ft | 510 kts | 114° |
| 2026-04-26 02:51 | 25.05908 | 57.23668 | 32460 ft | 510 kts | 114° |
| 2026-04-26 02:51 | 25.04524 | 57.27273 | 32899 ft | 509 kts | 114° |
| 2026-04-26 02:52 | 25.03143 | 57.30871 | 33327 ft | 509 kts | 114° |
| 2026-04-26 02:52 | 25.01762 | 57.34464 | 33757 ft | 508 kts | 114° |
| 2026-04-26 02:52 | 25.00378 | 57.38061 | 34121 ft | 507 kts | 114° |
| 2026-04-26 02:52 | 24.99001 | 57.41639 | 34443 ft | 508 kts | 114° |
| 2026-04-26 02:53 | 24.97608 | 57.45249 | 34735 ft | 509 kts | 113° |
| 2026-04-26 02:53 | 24.96220 | 57.48849 | 35005 ft | 510 kts | 113° |
| 2026-04-26 02:53 | 24.94831 | 57.52448 | 35249 ft | 511 kts | 113° |
| 2026-04-26 02:53 | 24.93434 | 57.56067 | 35467 ft | 513 kts | 113° |
| 2026-04-26 02:54 | 24.92032 | 57.59698 | 35693 ft | 515 kts | 112° |
| 2026-04-26 02:54 | 24.90624 | 57.63340 | 35896 ft | 517 kts | 112° |
| 2026-04-26 02:54 | 24.89202 | 57.67017 | 36108 ft | 518 kts | 112° |
| 2026-04-26 02:54 | 24.87785 | 57.70676 | 36325 ft | 520 kts | 112° |
| 2026-04-26 02:55 | 24.86363 | 57.74344 | 36514 ft | 521 kts | 112° |
| 2026-04-26 02:55 | 24.84932 | 57.78032 | 36717 ft | 523 kts | 112° |
| 2026-04-26 02:55 | 24.83509 | 57.81683 | 36848 ft | 525 kts | 113° |
| 2026-04-26 02:55 | 24.81973 | 57.85331 | 36850 ft | 526 kts | 115° |
| 2026-04-26 02:56 | 24.78796 | 57.92610 | 36857 ft | 526 kts | 115° |
| 2026-04-26 02:56 | 24.75613 | 57.99872 | 36859 ft | 526 kts | 115° |
| 2026-04-26 02:57 | 24.72437 | 58.07125 | 36857 ft | 526 kts | 115° |
| 2026-04-26 02:57 | 24.69257 | 58.14382 | 36859 ft | 525 kts | 115° |
| 2026-04-26 02:58 | 24.66603 | 58.20429 | 36859 ft | 525 kts | 115° |
| 2026-04-26 02:58 | 24.62904 | 58.28847 | 36858 ft | 525 kts | 115° |
| 2026-04-26 02:59 | 24.59721 | 58.36080 | 36855 ft | 525 kts | 115° |
| 2026-04-26 02:59 | 24.56531 | 58.43314 | 36854 ft | 525 kts | 115° |
| 2026-04-26 03:00 | 24.53876 | 58.49330 | 36853 ft | 525 kts | 115° |
| 2026-04-26 03:00 | 24.50679 | 58.56563 | 36851 ft | 526 kts | 115° |
| 2026-04-26 03:01 | 24.47477 | 58.63796 | 36853 ft | 526 kts | 115° |
| 2026-04-26 03:01 | 24.44267 | 58.71038 | 36857 ft | 526 kts | 115° |
| 2026-04-26 03:02 | 24.41056 | 58.78267 | 36853 ft | 527 kts | 115° |
| 2026-04-26 03:02 | 24.37838 | 58.85498 | 36849 ft | 526 kts | 115° |
| 2026-04-26 03:03 | 24.34619 | 58.92724 | 36850 ft | 526 kts | 115° |
| 2026-04-26 03:03 | 24.31397 | 58.99952 | 36848 ft | 526 kts | 115° |
| 2026-04-26 03:04 | 24.28188 | 59.07137 | 36848 ft | 527 kts | 115° |
| 2026-04-26 03:04 | 24.24957 | 59.14360 | 36850 ft | 526 kts | 115° |
| 2026-04-26 03:05 | 24.21733 | 59.21559 | 36855 ft | 525 kts | 115° |
| 2026-04-26 03:05 | 24.18512 | 59.28739 | 36851 ft | 524 kts | 115° |
| 2026-04-26 03:06 | 24.15292 | 59.35908 | 36848 ft | 523 kts | 115° |
| 2026-04-26 03:06 | 24.12098 | 59.43012 | 36852 ft | 522 kts | 115° |
| 2026-04-26 03:07 | 24.08880 | 59.50154 | 36855 ft | 521 kts | 115° |
| 2026-04-26 03:07 | 24.05664 | 59.57269 | 36852 ft | 520 kts | 115° |
| 2026-04-26 03:08 | 24.02450 | 59.64369 | 36853 ft | 520 kts | 115° |
| 2026-04-26 03:08 | 23.99238 | 59.71460 | 36853 ft | 519 kts | 115° |
| 2026-04-26 03:09 | 23.96021 | 59.78555 | 36853 ft | 520 kts | 115° |
| 2026-04-26 03:09 | 23.92800 | 59.85648 | 36859 ft | 520 kts | 115° |
| 2026-04-26 03:10 | 23.89592 | 59.92701 | 36855 ft | 520 kts | 115° |
| 2026-04-26 03:10 | 23.86364 | 59.99788 | 36855 ft | 520 kts | 115° |
| 2026-04-26 03:11 | 23.83128 | 60.06880 | 36855 ft | 520 kts | 115° |
| 2026-04-26 03:11 | 23.79896 | 60.13955 | 36859 ft | 520 kts | 115° |
| 2026-04-26 03:12 | 23.76664 | 60.21019 | 36857 ft | 519 kts | 115° |
| 2026-04-26 03:12 | 23.73425 | 60.28087 | 36855 ft | 519 kts | 115° |
| 2026-04-26 03:13 | 23.70210 | 60.35093 | 36859 ft | 518 kts | 115° |
| 2026-04-26 03:13 | 23.66977 | 60.42128 | 36859 ft | 518 kts | 115° |
| 2026-04-26 03:14 | 23.63741 | 60.49158 | 36859 ft | 517 kts | 115° |
| 2026-04-26 03:14 | 23.60509 | 60.56171 | 36864 ft | 517 kts | 115° |
| 2026-04-26 03:15 | 23.57272 | 60.63183 | 36864 ft | 516 kts | 115° |
| 2026-04-26 03:15 | 23.54038 | 60.70180 | 36862 ft | 516 kts | 115° |
| 2026-04-26 03:16 | 23.50803 | 60.77167 | 36863 ft | 515 kts | 115° |
| 2026-04-26 03:16 | 23.47591 | 60.84097 | 36867 ft | 515 kts | 115° |
| 2026-04-26 03:17 | 23.44355 | 60.91068 | 36865 ft | 514 kts | 115° |
| 2026-04-26 03:17 | 23.41115 | 60.98038 | 36866 ft | 514 kts | 115° |
| 2026-04-26 03:18 | 23.37883 | 61.04982 | 36867 ft | 513 kts | 115° |
| 2026-04-26 03:18 | 23.34652 | 61.11915 | 36870 ft | 512 kts | 115° |
| 2026-04-26 03:19 | 23.31428 | 61.18826 | 36867 ft | 511 kts | 115° |
| 2026-04-26 03:19 | 23.28315 | 61.25775 | 36872 ft | 510 kts | 114° |
| 2026-04-26 03:20 | 23.25238 | 61.32739 | 36872 ft | 509 kts | 114° |
| 2026-04-26 03:20 | 23.22151 | 61.39692 | 36875 ft | 508 kts | 114° |
| 2026-04-26 03:21 | 23.18757 | 61.46394 | 36874 ft | 509 kts | 122° |
| 2026-04-26 03:21 | 23.15638 | 61.53277 | 36879 ft | 506 kts | 111° |
| 2026-04-26 03:22 | 23.12869 | 61.60311 | 36879 ft | 506 kts | 112° |
| 2026-04-26 03:22 | 23.09863 | 61.67239 | 36880 ft | 506 kts | 114° |
| 2026-04-26 03:23 | 23.06767 | 61.74119 | 36882 ft | 506 kts | 115° |
| 2026-04-26 03:23 | 23.03671 | 61.80991 | 36879 ft | 506 kts | 115° |
| 2026-04-26 03:24 | 23.00573 | 61.87869 | 36883 ft | 506 kts | 115° |
| 2026-04-26 03:24 | 22.97501 | 61.94690 | 36882 ft | 506 kts | 115° |
| 2026-04-26 03:25 | 22.94383 | 62.01601 | 36888 ft | 505 kts | 115° |
| 2026-04-26 03:25 | 22.91306 | 62.08415 | 36889 ft | 505 kts | 115° |
| 2026-04-26 03:26 | 22.88213 | 62.15255 | 36888 ft | 505 kts | 115° |
| 2026-04-26 03:26 | 22.85118 | 62.22090 | 36890 ft | 504 kts | 115° |
| 2026-04-26 03:27 | 22.82016 | 62.28929 | 36887 ft | 504 kts | 115° |
| 2026-04-26 03:27 | 22.78916 | 62.35755 | 36892 ft | 504 kts | 115° |
| 2026-04-26 03:28 | 22.75806 | 62.42593 | 36893 ft | 503 kts | 115° |
| 2026-04-26 03:28 | 22.72706 | 62.49401 | 36892 ft | 503 kts | 115° |
| 2026-04-26 03:29 | 22.69625 | 62.56157 | 36893 ft | 502 kts | 115° |
| 2026-04-26 03:29 | 22.66524 | 62.62947 | 36890 ft | 502 kts | 115° |
| 2026-04-26 03:30 | 22.63421 | 62.69732 | 36890 ft | 501 kts | 115° |
| 2026-04-26 03:30 | 22.60324 | 62.76496 | 36889 ft | 501 kts | 115° |
| 2026-04-26 03:31 | 22.57227 | 62.83252 | 36893 ft | 500 kts | 115° |
| 2026-04-26 03:31 | 22.54132 | 62.89995 | 36890 ft | 499 kts | 115° |
| 2026-04-26 03:32 | 22.51034 | 62.96736 | 36890 ft | 499 kts | 115° |
| 2026-04-26 03:32 | 22.47939 | 63.03464 | 36890 ft | 498 kts | 115° |
| 2026-04-26 03:33 | 22.44868 | 63.10128 | 36892 ft | 498 kts | 115° |
| 2026-04-26 03:33 | 22.41815 | 63.16854 | 36892 ft | 497 kts | 115° |
| 2026-04-26 03:34 | 22.38810 | 63.23591 | 36892 ft | 497 kts | 115° |
| 2026-04-26 03:34 | 22.35799 | 63.30329 | 36892 ft | 496 kts | 115° |
| 2026-04-26 03:35 | 22.32790 | 63.37047 | 36890 ft | 496 kts | 115° |
| 2026-04-26 03:35 | 22.29779 | 63.43757 | 36894 ft | 496 kts | 115° |
| 2026-04-26 03:36 | 22.26782 | 63.50423 | 36897 ft | 496 kts | 115° |
| 2026-04-26 03:36 | 22.23766 | 63.57126 | 36892 ft | 495 kts | 115° |
| 2026-04-26 03:37 | 22.20749 | 63.63820 | 36889 ft | 495 kts | 115° |
| 2026-04-26 03:37 | 22.17731 | 63.70507 | 36891 ft | 495 kts | 115° |
| 2026-04-26 03:38 | 22.14711 | 63.77191 | 36892 ft | 495 kts | 115° |
| 2026-04-26 03:38 | 22.11693 | 63.83863 | 36891 ft | 494 kts | 115° |
| 2026-04-26 03:39 | 22.08666 | 63.90543 | 36890 ft | 494 kts | 115° |
| 2026-04-26 03:39 | 22.05640 | 63.97213 | 36891 ft | 494 kts | 115° |
| 2026-04-26 03:40 | 22.02616 | 64.03870 | 36894 ft | 494 kts | 115° |
| 2026-04-26 03:40 | 21.99583 | 64.10538 | 36893 ft | 494 kts | 115° |
| 2026-04-26 03:41 | 21.96573 | 64.17146 | 36893 ft | 494 kts | 116° |
| 2026-04-26 03:41 | 21.93539 | 64.23799 | 36894 ft | 494 kts | 116° |
| 2026-04-26 03:42 | 21.90505 | 64.30443 | 36895 ft | 494 kts | 116° |
| 2026-04-26 03:42 | 21.87464 | 64.37091 | 36892 ft | 494 kts | 116° |
| 2026-04-26 03:43 | 21.84423 | 64.43734 | 36891 ft | 494 kts | 116° |
| 2026-04-26 03:43 | 21.81378 | 64.50377 | 36892 ft | 494 kts | 116° |
| 2026-04-26 03:44 | 21.78337 | 64.57001 | 36890 ft | 494 kts | 116° |
| 2026-04-26 03:44 | 21.75291 | 64.63626 | 36891 ft | 493 kts | 116° |
| 2026-04-26 03:45 | 21.72241 | 64.70254 | 36891 ft | 493 kts | 116° |
| 2026-04-26 03:45 | 21.69208 | 64.76834 | 36891 ft | 493 kts | 116° |
| 2026-04-26 03:46 | 21.66652 | 64.82375 | 36892 ft | 493 kts | 116° |
| 2026-04-26 03:47 | 21.62093 | 64.92243 | 36896 ft | 492 kts | 116° |
| 2026-04-26 03:47 | 21.59039 | 64.98844 | 36893 ft | 492 kts | 116° |
| 2026-04-26 03:48 | 21.55975 | 65.05455 | 36893 ft | 492 kts | 116° |
| 2026-04-26 03:48 | 21.52920 | 65.12040 | 36890 ft | 492 kts | 116° |
| 2026-04-26 03:49 | 21.49859 | 65.18630 | 36896 ft | 491 kts | 116° |
| 2026-04-26 03:49 | 21.46822 | 65.25159 | 36895 ft | 491 kts | 116° |
| 2026-04-26 03:50 | 21.43763 | 65.31727 | 36894 ft | 491 kts | 116° |
| 2026-04-26 03:50 | 21.40700 | 65.38297 | 36891 ft | 491 kts | 116° |
| 2026-04-26 03:51 | 21.37635 | 65.44863 | 36895 ft | 491 kts | 116° |
| 2026-04-26 03:51 | 21.34566 | 65.51429 | 36893 ft | 491 kts | 116° |
| 2026-04-26 03:52 | 21.31495 | 65.57991 | 36897 ft | 491 kts | 116° |
| 2026-04-26 03:52 | 21.28440 | 65.64511 | 36895 ft | 491 kts | 116° |
| 2026-04-26 03:53 | 21.25362 | 65.71072 | 36893 ft | 492 kts | 116° |
| 2026-04-26 03:53 | 21.22284 | 65.77627 | 36899 ft | 492 kts | 116° |
| 2026-04-26 03:54 | 21.19201 | 65.84183 | 36898 ft | 492 kts | 116° |
| 2026-04-26 03:54 | 21.16118 | 65.90736 | 36898 ft | 492 kts | 116° |
| 2026-04-26 03:55 | 21.13030 | 65.97289 | 36893 ft | 492 kts | 116° |
| 2026-04-26 03:55 | 21.09971 | 66.03855 | 36893 ft | 492 kts | 115° |
| 2026-04-26 03:56 | 21.06995 | 66.10420 | 36896 ft | 492 kts | 115° |
| 2026-04-26 03:56 | 21.04003 | 66.17021 | 36896 ft | 492 kts | 115° |
| 2026-04-26 03:57 | 21.01005 | 66.23616 | 36898 ft | 492 kts | 115° |
| 2026-04-26 03:57 | 20.98000 | 66.30211 | 36897 ft | 492 kts | 116° |
| 2026-04-26 03:58 | 20.94996 | 66.36794 | 36898 ft | 492 kts | 116° |
| 2026-04-26 03:58 | 20.91986 | 66.43383 | 36898 ft | 492 kts | 116° |
| 2026-04-26 03:59 | 20.88973 | 66.49968 | 36897 ft | 492 kts | 116° |
| 2026-04-26 03:59 | 20.85959 | 66.56550 | 36901 ft | 492 kts | 116° |
| 2026-04-26 04:00 | 20.82948 | 66.63115 | 36898 ft | 492 kts | 116° |
| 2026-04-26 04:00 | 20.79928 | 66.69694 | 36898 ft | 492 kts | 116° |
| 2026-04-26 04:01 | 20.76927 | 66.76222 | 36898 ft | 492 kts | 116° |
| 2026-04-26 04:01 | 20.73907 | 66.82784 | 36895 ft | 492 kts | 116° |
| 2026-04-26 04:02 | 20.70879 | 66.89355 | 36900 ft | 492 kts | 116° |
| 2026-04-26 04:02 | 20.67851 | 66.95919 | 36898 ft | 492 kts | 116° |
| 2026-04-26 04:03 | 20.64811 | 67.02500 | 36899 ft | 492 kts | 116° |
| 2026-04-26 04:03 | 20.61775 | 67.09064 | 36897 ft | 492 kts | 116° |
| 2026-04-26 04:04 | 20.58737 | 67.15626 | 36896 ft | 492 kts | 116° |
| 2026-04-26 04:04 | 20.55715 | 67.22142 | 36899 ft | 492 kts | 116° |
| 2026-04-26 04:05 | 20.52669 | 67.28704 | 36902 ft | 492 kts | 116° |
| 2026-04-26 04:05 | 20.49627 | 67.35251 | 36899 ft | 492 kts | 116° |
| 2026-04-26 04:06 | 20.46580 | 67.41800 | 36895 ft | 492 kts | 116° |
| 2026-04-26 04:06 | 20.43531 | 67.48345 | 36898 ft | 492 kts | 116° |
| 2026-04-26 04:07 | 20.40480 | 67.54885 | 36895 ft | 492 kts | 116° |
| 2026-04-26 04:07 | 20.37429 | 67.61420 | 36895 ft | 492 kts | 116° |
| 2026-04-26 04:08 | 20.34373 | 67.67956 | 36901 ft | 492 kts | 117° |
| 2026-04-26 04:08 | 20.31317 | 67.74484 | 36896 ft | 491 kts | 117° |
| 2026-04-26 04:09 | 20.28257 | 67.81012 | 36895 ft | 491 kts | 117° |
| 2026-04-26 04:09 | 20.25220 | 67.87487 | 36894 ft | 491 kts | 117° |
| 2026-04-26 04:10 | 20.22157 | 67.94005 | 36894 ft | 491 kts | 117° |
| 2026-04-26 04:10 | 20.19099 | 68.00508 | 36894 ft | 490 kts | 117° |
| 2026-04-26 04:11 | 20.16040 | 68.07006 | 36896 ft | 490 kts | 117° |
| 2026-04-26 04:11 | 20.12977 | 68.13504 | 36896 ft | 490 kts | 117° |
| 2026-04-26 04:12 | 20.09914 | 68.19993 | 36897 ft | 490 kts | 117° |
| 2026-04-26 04:12 | 20.06849 | 68.26480 | 36896 ft | 490 kts | 117° |
| 2026-04-26 04:13 | 20.03782 | 68.32963 | 36892 ft | 489 kts | 117° |
| 2026-04-26 04:13 | 20.00734 | 68.39398 | 36895 ft | 489 kts | 117° |
| 2026-04-26 04:14 | 19.97665 | 68.45870 | 36893 ft | 489 kts | 117° |
| 2026-04-26 04:14 | 19.94592 | 68.52346 | 36895 ft | 489 kts | 117° |
| 2026-04-26 04:15 | 19.91540 | 68.58767 | 36896 ft | 489 kts | 118° |
| 2026-04-26 04:15 | 19.88467 | 68.65226 | 36892 ft | 489 kts | 118° |
| 2026-04-26 04:16 | 19.85381 | 68.71705 | 36896 ft | 489 kts | 118° |
| 2026-04-26 04:16 | 19.82308 | 68.78150 | 36894 ft | 489 kts | 118° |
| 2026-04-26 04:17 | 19.79227 | 68.84604 | 36891 ft | 489 kts | 118° |
| 2026-04-26 04:17 | 19.76141 | 68.91062 | 36889 ft | 489 kts | 118° |
| 2026-04-26 04:18 | 19.73058 | 68.97504 | 36889 ft | 489 kts | 118° |
| 2026-04-26 04:18 | 19.69960 | 69.03972 | 36887 ft | 489 kts | 118° |
| 2026-04-26 04:19 | 19.66889 | 69.10379 | 36885 ft | 490 kts | 118° |
| 2026-04-26 04:19 | 19.63792 | 69.16832 | 36884 ft | 490 kts | 118° |
| 2026-04-26 04:20 | 19.60691 | 69.23288 | 36886 ft | 491 kts | 118° |
| 2026-04-26 04:20 | 19.57583 | 69.29753 | 36884 ft | 491 kts | 118° |
| 2026-04-26 04:21 | 19.54475 | 69.36225 | 36880 ft | 492 kts | 118° |
| 2026-04-26 04:21 | 19.51469 | 69.42760 | 36885 ft | 493 kts | 117° |
| 2026-04-26 04:22 | 19.48478 | 69.49319 | 36884 ft | 493 kts | 118° |
| 2026-04-26 04:22 | 19.45486 | 69.55858 | 36886 ft | 494 kts | 118° |
| 2026-04-26 04:23 | 19.42474 | 69.62423 | 36883 ft | 494 kts | 118° |
| 2026-04-26 04:23 | 19.39460 | 69.68983 | 36884 ft | 495 kts | 118° |
| 2026-04-26 04:24 | 19.36435 | 69.75556 | 36882 ft | 495 kts | 118° |
| 2026-04-26 04:24 | 19.33403 | 69.82134 | 36883 ft | 496 kts | 118° |
| 2026-04-26 04:25 | 19.30391 | 69.88665 | 36886 ft | 496 kts | 118° |
| 2026-04-26 04:25 | 19.27349 | 69.95252 | 36883 ft | 497 kts | 119° |
| 2026-04-26 04:26 | 19.24296 | 70.01855 | 36890 ft | 497 kts | 119° |
| 2026-04-26 04:26 | 19.21247 | 70.08442 | 36889 ft | 498 kts | 119° |
| 2026-04-26 04:27 | 19.18187 | 70.15045 | 36896 ft | 498 kts | 119° |
| 2026-04-26 04:27 | 19.15128 | 70.21638 | 36900 ft | 499 kts | 119° |
| 2026-04-26 04:28 | 19.12068 | 70.28227 | 36894 ft | 499 kts | 119° |
| 2026-04-26 04:28 | 19.09000 | 70.34824 | 36898 ft | 499 kts | 120° |
| 2026-04-26 04:29 | 19.05931 | 70.41418 | 36898 ft | 499 kts | 120° |
| 2026-04-26 04:29 | 19.02875 | 70.47975 | 36897 ft | 500 kts | 120° |
| 2026-04-26 04:30 | 18.99793 | 70.54579 | 36893 ft | 500 kts | 120° |
| 2026-04-26 04:30 | 18.96711 | 70.61178 | 36892 ft | 500 kts | 120° |
| 2026-04-26 04:31 | 18.93627 | 70.67772 | 36895 ft | 500 kts | 120° |
| 2026-04-26 04:31 | 18.90540 | 70.74367 | 36892 ft | 500 kts | 120° |
| 2026-04-26 04:32 | 18.87447 | 70.80966 | 36894 ft | 500 kts | 120° |